createdAt,value
2023-01-05T00:17:04.704Z,5.00
2023-01-05T00:35:43.722Z,3.40
2023-01-05T00:54:26.500Z,2.30
2023-01-05T01:13:04.212Z,2.10
2023-01-05T01:31:44.022Z,3.10
2023-01-05T01:50:23.343Z,2.80
2023-01-05T02:09:01.934Z,1.70
2023-01-05T03:05:03.866Z,2.10
2023-01-05T03:23:40.102Z,2.60
2023-01-05T03:42:18.659Z,4.00
2023-01-05T04:00:57.774Z,2.50
2023-01-05T04:19:36.333Z,1.10
2023-01-05T04:38:18.076Z,1.60
2023-01-05T04:56:56.147Z,1.10
2023-01-05T05:15:34.363Z,2.00
2023-01-05T05:34:14.203Z,2.10
2023-01-05T05:52:54.043Z,2.30
2023-01-05T06:11:32.556Z,2.10
2023-01-05T06:48:50.174Z,2.10
2023-01-05T07:44:47.915Z,2.90
2023-01-05T08:03:27.835Z,5.10
2023-01-05T08:22:13.112Z,7.50
2023-01-05T08:40:48.670Z,5.80
2023-01-05T08:59:29.358Z,6.70
2023-01-05T09:18:09.744Z,5.20
2023-01-05T09:36:49.915Z,5.10
2023-01-05T09:55:39.677Z,4.70
2023-01-05T10:14:15.387Z,5.80
2023-01-05T10:32:59.738Z,6.50
2023-01-05T10:51:34.745Z,12.90
2023-01-05T11:10:21.601Z,6.40
2023-01-05T11:29:25.119Z,4.00
2023-01-05T12:06:53.666Z,3.00
2023-01-05T12:25:41.053Z,3.80
2023-01-05T13:02:49.618Z,2.90
2023-01-05T13:21:32.383Z,2.50
2023-01-05T14:36:02.647Z,4.30
2023-01-05T14:54:36.845Z,3.90
2023-01-05T15:13:09.116Z,8.30
2023-01-05T15:31:48.768Z,5.30
2023-01-05T15:50:20.034Z,3.70
2023-01-05T16:08:56.879Z,5.80
2023-01-05T16:27:34.026Z,6.40
2023-01-05T16:46:19.767Z,5.60
2023-01-05T17:23:26.093Z,6.90
2023-01-05T17:42:04.600Z,7.50
2023-01-05T18:00:42.695Z,9.90
2023-01-05T18:37:58.029Z,7.30
2023-01-05T18:56:38.180Z,10.80
2023-01-05T19:15:15.676Z,6.60
2023-01-05T19:33:50.891Z,8.90
2023-01-05T19:52:29.394Z,7.90
2023-01-05T20:11:07.642Z,7.90
2023-01-05T20:29:45.978Z,8.50
2023-01-05T20:48:24.800Z,8.90
2023-01-05T21:07:01.929Z,10.50
2023-01-05T21:44:17.076Z,9.90
2023-01-05T22:02:55.429Z,6.70
2023-01-05T22:21:35.705Z,7.40
2023-01-05T22:40:14.051Z,7.90
2023-01-05T22:58:53.126Z,6.70
2023-01-05T23:17:33.349Z,7.00
2023-01-05T23:36:11.799Z,4.80
2023-01-05T23:54:51.673Z,5.30
